sensor_id;sensor_type;location;lat;lon;timestamp;pressure;altitude;pressure_sealevel;temperature;humidity
81155;BME280;70631;50.436;7.826;2023-11-21T00:01:37;98459.84;;;9.00;84.33
81155;BME280;70631;50.436;7.826;2023-11-21T00:04:03;98460.66;;;9.00;84.66
81155;BME280;70631;50.436;7.826;2023-11-21T00:06:28;98459.00;;;8.99;84.55
81155;BME280;70631;50.436;7.826;2023-11-21T00:08:55;98462.81;;;8.97;84.82
81155;BME280;70631;50.436;7.826;2023-11-21T00:11:20;98461.28;;;8.94;85.25
81155;BME280;70631;50.436;7.826;2023-11-21T00:13:46;98457.63;;;8.95;85.26
81155;BME280;70631;50.436;7.826;2023-11-21T00:16:11;98465.00;;;9.01;84.70
81155;BME280;70631;50.436;7.826;2023-11-21T00:18:36;98463.69;;;9.05;84.99
81155;BME280;70631;50.436;7.826;2023-11-21T00:21:02;98461.03;;;9.05;84.29
81155;BME280;70631;50.436;7.826;2023-11-21T00:23:28;98461.03;;;9.05;84.61
81155;BME280;70631;50.436;7.826;2023-11-21T00:25:54;98466.19;;;9.07;84.60
81155;BME280;70631;50.436;7.826;2023-11-21T00:28:19;98465.06;;;9.09;84.18
81155;BME280;70631;50.436;7.826;2023-11-21T00:30:44;98464.78;;;9.12;84.23
81155;BME280;70631;50.436;7.826;2023-11-21T00:33:10;98463.94;;;9.12;84.55
81155;BME280;70631;50.436;7.826;2023-11-21T00:35:36;98466.44;;;9.13;84.37
81155;BME280;70631;50.436;7.826;2023-11-21T00:38:01;98459.16;;;9.15;84.47
81155;BME280;70631;50.436;7.826;2023-11-21T00:40:28;98464.16;;;9.18;84.59
81155;BME280;70631;50.436;7.826;2023-11-21T00:42:53;98470.16;;;9.21;84.15
81155;BME280;70631;50.436;7.826;2023-11-21T00:45:19;98472.50;;;9.24;84.51
81155;BME280;70631;50.436;7.826;2023-11-21T00:47:44;98468.19;;;9.23;84.34
81155;BME280;70631;50.436;7.826;2023-11-21T00:50:09;98477.28;;;9.20;84.67
81155;BME280;70631;50.436;7.826;2023-11-21T00:52:35;98480.25;;;9.17;84.36
81155;BME280;70631;50.436;7.826;2023-11-21T00:55:01;98473.66;;;9.21;84.32
81155;BME280;70631;50.436;7.826;2023-11-21T00:57:28;98484.81;;;9.25;84.24
81155;BME280;70631;50.436;7.826;2023-11-21T00:59:53;98470.00;;;9.22;84.41
81155;BME280;70631;50.436;7.826;2023-11-21T01:02:18;98479.34;;;9.26;84.25
81155;BME280;70631;50.436;7.826;2023-11-21T01:04:43;98478.19;;;9.29;83.86
81155;BME280;70631;50.436;7.826;2023-11-21T01:07:09;98482.69;;;9.28;84.16
81155;BME280;70631;50.436;7.826;2023-11-21T01:09:34;98489.50;;;9.31;83.88
81155;BME280;70631;50.436;7.826;2023-11-21T01:11:59;98485.84;;;9.32;84.31
81155;BME280;70631;50.436;7.826;2023-11-21T01:14:25;98500.84;;;9.33;84.04
81155;BME280;70631;50.436;7.826;2023-11-21T01:16:51;98504.19;;;9.35;84.24
81155;BME280;70631;50.436;7.826;2023-11-21T01:19:17;98496.88;;;9.37;84.25
81155;BME280;70631;50.436;7.826;2023-11-21T01:21:42;98509.34;;;9.36;84.24
81155;BME280;70631;50.436;7.826;2023-11-21T01:24:07;98514.81;;;9.35;83.67
81155;BME280;70631;50.436;7.826;2023-11-21T01:26:33;98512.16;;;9.35;83.84
81155;BME280;70631;50.436;7.826;2023-11-21T01:28:58;98513.16;;;9.34;83.89
81155;BME280;70631;50.436;7.826;2023-11-21T01:31:24;98515.81;;;9.34;84.40
81155;BME280;70631;50.436;7.826;2023-11-21T01:33:52;98513.84;;;9.36;84.01
81155;BME280;70631;50.436;7.826;2023-11-21T01:36:17;98517.16;;;9.38;84.17
81155;BME280;70631;50.436;7.826;2023-11-21T01:38:43;98525.81;;;9.40;84.12
81155;BME280;70631;50.436;7.826;2023-11-21T01:41:08;98524.16;;;9.39;83.75
81155;BME280;70631;50.436;7.826;2023-11-21T01:43:36;98525.81;;;9.40;83.86
81155;BME280;70631;50.436;7.826;2023-11-21T01:46:02;98529.16;;;9.42;83.75
81155;BME280;70631;50.436;7.826;2023-11-21T01:48:28;98530.00;;;9.42;83.62
81155;BME280;70631;50.436;7.826;2023-11-21T01:50:53;98528.03;;;9.44;84.02
81155;BME280;70631;50.436;7.826;2023-11-21T01:53:19;98535.00;;;9.45;83.43
81155;BME280;70631;50.436;7.826;2023-11-21T01:55:46;98538.50;;;9.46;83.49
81155;BME280;70631;50.436;7.826;2023-11-21T01:58:11;98535.84;;;9.46;83.61
81155;BME280;70631;50.436;7.826;2023-11-21T02:00:37;98538.19;;;9.49;83.62
81155;BME280;70631;50.436;7.826;2023-11-21T02:03:03;98534.53;;;9.50;83.40
81155;BME280;70631;50.436;7.826;2023-11-21T02:05:29;98537.19;;;9.50;83.41
81155;BME280;70631;50.436;7.826;2023-11-21T02:07:54;98535.53;;;9.49;83.65
81155;BME280;70631;50.436;7.826;2023-11-21T02:10:19;98537.19;;;9.50;83.31
81155;BME280;70631;50.436;7.826;2023-11-21T02:12:49;98531.72;;;9.52;83.70
81155;BME280;70631;50.436;7.826;2023-11-21T02:15:17;98536.38;;;9.49;83.62
81155;BME280;70631;50.436;7.826;2023-11-21T02:17:47;98538.50;;;9.46;83.50
81155;BME280;70631;50.436;7.826;2023-11-21T02:20:16;98540.16;;;9.47;83.45
81155;BME280;70631;50.436;7.826;2023-11-21T02:22:43;98535.69;;;9.47;83.67
81155;BME280;70631;50.436;7.826;2023-11-21T02:25:09;98540.84;;;9.49;83.75
81155;BME280;70631;50.436;7.826;2023-11-21T02:27:34;98541.00;;;9.47;83.66
81155;BME280;70631;50.436;7.826;2023-11-21T02:29:59;98548.16;;;9.47;83.71
81155;BME280;70631;50.436;7.826;2023-11-21T02:32:26;98545.50;;;9.47;83.39
81155;BME280;70631;50.436;7.826;2023-11-21T02:34:51;98547.00;;;9.49;83.55
81155;BME280;70631;50.436;7.826;2023-11-21T02:37:17;98546.16;;;9.49;83.55
81155;BME280;70631;50.436;7.826;2023-11-21T02:39:42;98555.97;;;9.48;83.12
81155;BME280;70631;50.436;7.826;2023-11-21T02:42:08;98555.13;;;9.48;83.30
81155;BME280;70631;50.436;7.826;2023-11-21T02:44:33;98545.50;;;9.47;83.46
81155;BME280;70631;50.436;7.826;2023-11-21T02:46:59;98546.63;;;9.44;83.00
81155;BME280;70631;50.436;7.826;2023-11-21T02:49:25;98550.44;;;9.42;83.01
81155;BME280;70631;50.436;7.826;2023-11-21T02:51:53;98549.06;;;9.38;83.46
81155;BME280;70631;50.436;7.826;2023-11-21T02:54:19;98546.03;;;9.33;83.47
81155;BME280;70631;50.436;7.826;2023-11-21T02:56:47;98545.47;;;9.29;83.66
81155;BME280;70631;50.436;7.826;2023-11-21T02:59:12;98553.59;;;9.28;83.74
81155;BME280;70631;50.436;7.826;2023-11-21T03:01:37;98552.94;;;9.26;83.62
81155;BME280;70631;50.436;7.826;2023-11-21T03:04:02;98552.94;;;9.26;83.40
81155;BME280;70631;50.436;7.826;2023-11-21T03:06:28;98560.91;;;9.26;83.17
81155;BME280;70631;50.436;7.826;2023-11-21T03:08:53;98557.41;;;9.25;83.15
81155;BME280;70631;50.436;7.826;2023-11-21T03:11:18;98559.22;;;9.25;83.25
81155;BME280;70631;50.436;7.826;2023-11-21T03:13:44;98567.22;;;9.25;83.41
81155;BME280;70631;50.436;7.826;2023-11-21T03:16:10;98564.84;;;9.22;83.71
81155;BME280;70631;50.436;7.826;2023-11-21T03:18:39;98567.50;;;9.22;83.18
81155;BME280;70631;50.436;7.826;2023-11-21T03:21:05;98586.94;;;9.22;83.36
81155;BME280;70631;50.436;7.826;2023-11-21T03:23:31;98587.41;;;9.17;83.53
81155;BME280;70631;50.436;7.826;2023-11-21T03:25:56;98586.03;;;9.13;83.49
81155;BME280;70631;50.436;7.826;2023-11-21T03:28:22;98587.72;;;9.14;83.29
81155;BME280;70631;50.436;7.826;2023-11-21T03:30:48;98588.38;;;9.16;83.25
81155;BME280;70631;50.436;7.826;2023-11-21T03:33:13;98586.72;;;9.15;83.33
81155;BME280;70631;50.436;7.826;2023-11-21T03:35:39;98585.06;;;9.14;83.38
81155;BME280;70631;50.436;7.826;2023-11-21T03:38:07;98585.88;;;9.15;83.33
81155;BME280;70631;50.436;7.826;2023-11-21T03:40:32;98589.53;;;9.14;83.35
81155;BME280;70631;50.436;7.826;2023-11-21T03:42:57;98592.34;;;9.12;83.50
81155;BME280;70631;50.436;7.826;2023-11-21T03:45:22;98595.25;;;9.09;83.42
81155;BME280;70631;50.436;7.826;2023-11-21T03:47:48;98600.19;;;9.04;83.57
81155;BME280;70631;50.436;7.826;2023-11-21T03:50:13;98599.22;;;9.05;83.84
81155;BME280;70631;50.436;7.826;2023-11-21T03:52:38;98605.50;;;9.04;83.26
81155;BME280;70631;50.436;7.826;2023-11-21T03:55:04;98603.84;;;9.03;83.49
81155;BME280;70631;50.436;7.826;2023-11-21T03:57:29;98600.19;;;9.04;83.60
81155;BME280;70631;50.436;7.826;2023-11-21T03:59:55;98611.66;;;9.05;83.49
81155;BME280;70631;50.436;7.826;2023-11-21T04:02:20;98611.66;;;9.05;83.00
81155;BME280;70631;50.436;7.826;2023-11-21T04:04:45;98621.59;;;9.03;83.43
81155;BME280;70631;50.436;7.826;2023-11-21T04:07:10;98623.44;;;9.02;83.00
81155;BME280;70631;50.436;7.826;2023-11-21T04:09:36;98619.25;;;9.00;83.62
81155;BME280;70631;50.436;7.826;2023-11-21T04:12:02;98630.72;;;9.00;83.56
81155;BME280;70631;50.436;7.826;2023-11-21T04:14:27;98626.78;;;9.04;83.28
81155;BME280;70631;50.436;7.826;2023-11-21T04:16:52;98635.44;;;9.06;83.48
81155;BME280;70631;50.436;7.826;2023-11-21T04:19:18;98636.13;;;9.08;83.11
81155;BME280;70631;50.436;7.826;2023-11-21T04:21:44;98636.41;;;9.05;83.20
81155;BME280;70631;50.436;7.826;2023-11-21T04:24:09;98638.22;;;9.05;82.86
81155;BME280;70631;50.436;7.826;2023-11-21T04:26:35;98640.22;;;9.03;83.08
81155;BME280;70631;50.436;7.826;2023-11-21T04:29:00;98639.38;;;9.02;83.08
81155;BME280;70631;50.436;7.826;2023-11-21T04:31:26;98648.47;;;9.00;83.40
81155;BME280;70631;50.436;7.826;2023-11-21T04:33:51;98652.94;;;8.99;83.47
81155;BME280;70631;50.436;7.826;2023-11-21T04:36:16;98648.63;;;8.98;83.06
81155;BME280;70631;50.436;7.826;2023-11-21T04:38:42;98659.09;;;9.00;83.05
81155;BME280;70631;50.436;7.826;2023-11-21T04:41:08;98653.94;;;8.98;83.09
81155;BME280;70631;50.436;7.826;2023-11-21T04:43:33;98667.75;;;9.02;82.97
81155;BME280;70631;50.436;7.826;2023-11-21T04:45:58;98669.59;;;9.01;83.31
81155;BME280;70631;50.436;7.826;2023-11-21T04:48:23;98671.09;;;9.04;83.20
81155;BME280;70631;50.436;7.826;2023-11-21T04:50:49;98677.69;;;9.00;82.83
81155;BME280;70631;50.436;7.826;2023-11-21T04:53:14;98683.75;;;8.92;82.34
81155;BME280;70631;50.436;7.826;2023-11-21T04:55:42;98680.25;;;8.92;82.89
81155;BME280;70631;50.436;7.826;2023-11-21T04:58:09;98679.69;;;8.88;83.08
81155;BME280;70631;50.436;7.826;2023-11-21T05:00:34;98679.97;;;8.85;83.38
81155;BME280;70631;50.436;7.826;2023-11-21T05:03:00;98682.50;;;8.86;83.25
81155;BME280;70631;50.436;7.826;2023-11-21T05:05:29;98678.00;;;8.87;83.51
81155;BME280;70631;50.436;7.826;2023-11-21T05:07:55;98694.78;;;8.87;83.25
81155;BME280;70631;50.436;7.826;2023-11-21T05:10:20;98699.00;;;8.90;83.12
81155;BME280;70631;50.436;7.826;2023-11-21T05:12:45;98697.31;;;8.89;82.95
81155;BME280;70631;50.436;7.826;2023-11-21T05:15:14;98693.94;;;8.87;83.27
81155;BME280;70631;50.436;7.826;2023-11-21T05:17:40;98699.28;;;8.87;82.89
81155;BME280;70631;50.436;7.826;2023-11-21T05:20:10;98701.78;;;8.88;83.13
81155;BME280;70631;50.436;7.826;2023-11-21T05:22:36;98700.94;;;8.88;83.02
81155;BME280;70631;50.436;7.826;2023-11-21T05:25:02;98707.25;;;8.87;83.17
81155;BME280;70631;50.436;7.826;2023-11-21T05:27:29;98706.41;;;8.86;83.03
81155;BME280;70631;50.436;7.826;2023-11-21T05:29:55;98709.34;;;8.83;83.10
81155;BME280;70631;50.436;7.826;2023-11-21T05:32:21;98707.81;;;8.81;83.22
81155;BME280;70631;50.436;7.826;2023-11-21T05:34:47;98710.47;;;8.81;83.58
81155;BME280;70631;50.436;7.826;2023-11-21T05:37:13;98713.28;;;8.79;83.45
81155;BME280;70631;50.436;7.826;2023-11-21T05:39:38;98713.72;;;8.75;83.07
81155;BME280;70631;50.436;7.826;2023-11-21T05:42:03;98713.03;;;8.73;83.29
81155;BME280;70631;50.436;7.826;2023-11-21T05:44:29;98716.66;;;8.72;83.42
81155;BME280;70631;50.436;7.826;2023-11-21T05:46:55;98713.88;;;8.73;83.55
81155;BME280;70631;50.436;7.826;2023-11-21T05:49:20;98720.00;;;8.74;83.53
81155;BME280;70631;50.436;7.826;2023-11-21T05:51:48;98718.06;;;8.76;83.13
81155;BME280;70631;50.436;7.826;2023-11-21T05:54:13;98713.56;;;8.76;83.42
81155;BME280;70631;50.436;7.826;2023-11-21T05:56:39;98723.06;;;8.79;83.32
81155;BME280;70631;50.436;7.826;2023-11-21T05:59:04;98723.91;;;8.79;83.10
81155;BME280;70631;50.436;7.826;2023-11-21T06:01:29;98729.06;;;8.81;83.04
81155;BME280;70631;50.436;7.826;2023-11-21T06:03:54;98729.91;;;8.81;82.98
81155;BME280;70631;50.436;7.826;2023-11-21T06:06:24;98730.59;;;8.83;83.12
81155;BME280;70631;50.436;7.826;2023-11-21T06:08:50;98733.41;;;8.82;83.15
81155;BME280;70631;50.436;7.826;2023-11-21T06:11:15;98734.94;;;8.84;82.89
81155;BME280;70631;50.436;7.826;2023-11-21T06:13:41;98741.38;;;8.82;83.03
81155;BME280;70631;50.436;7.826;2023-11-21T06:16:07;98756.47;;;8.81;82.82
81155;BME280;70631;50.436;7.826;2023-11-21T06:18:32;98752.97;;;8.81;83.02
81155;BME280;70631;50.436;7.826;2023-11-21T06:20:57;98765.13;;;8.83;83.14
81155;BME280;70631;50.436;7.826;2023-11-21T06:23:25;98766.66;;;8.86;82.62
81155;BME280;70631;50.436;7.826;2023-11-21T06:25:50;98772.66;;;8.88;82.86
81155;BME280;70631;50.436;7.826;2023-11-21T06:28:16;98770.31;;;8.85;83.24
81155;BME280;70631;50.436;7.826;2023-11-21T06:30:43;98777.16;;;8.87;83.05
81155;BME280;70631;50.436;7.826;2023-11-21T06:33:09;98773.66;;;8.87;83.30
81155;BME280;70631;50.436;7.826;2023-11-21T06:35:34;98784.00;;;8.90;83.25
81155;BME280;70631;50.436;7.826;2023-11-21T06:38:00;98784.84;;;8.91;83.11
81155;BME280;70631;50.436;7.826;2023-11-21T06:40:25;98787.50;;;8.91;82.91
81155;BME280;70631;50.436;7.826;2023-11-21T06:42:50;98792.69;;;8.92;83.08
81155;BME280;70631;50.436;7.826;2023-11-21T06:45:16;98789.03;;;8.93;83.10
81155;BME280;70631;50.436;7.826;2023-11-21T06:47:42;98794.34;;;8.93;82.84
81155;BME280;70631;50.436;7.826;2023-11-21T06:50:07;98804.00;;;8.94;83.14
81155;BME280;70631;50.436;7.826;2023-11-21T06:52:33;98802.31;;;8.93;82.95
81155;BME280;70631;50.436;7.826;2023-11-21T06:54:58;98806.94;;;8.91;82.96
81155;BME280;70631;50.436;7.826;2023-11-21T06:57:23;98814.78;;;8.93;83.11
81155;BME280;70631;50.436;7.826;2023-11-21T06:59:49;98813.34;;;8.88;82.93
81155;BME280;70631;50.436;7.826;2023-11-21T07:02:15;98818.41;;;8.92;82.91
81155;BME280;70631;50.436;7.826;2023-11-21T07:04:44;98826.22;;;8.93;82.88
81155;BME280;70631;50.436;7.826;2023-11-21T07:07:10;98836.88;;;8.93;82.57
81155;BME280;70631;50.436;7.826;2023-11-21T07:09:35;98832.09;;;8.97;82.35
81155;BME280;70631;50.436;7.826;2023-11-21T07:12:00;98832.09;;;8.97;82.80
81155;BME280;70631;50.436;7.826;2023-11-21T07:14:28;98840.06;;;8.97;82.78
81155;BME280;70631;50.436;7.826;2023-11-21T07:16:54;98846.06;;;8.99;82.83
81155;BME280;70631;50.436;7.826;2023-11-21T07:19:19;98850.13;;;9.03;82.32
81155;BME280;70631;50.436;7.826;2023-11-21T07:21:45;98844.66;;;9.04;82.14
81155;BME280;70631;50.436;7.826;2023-11-21T07:24:10;98850.81;;;9.05;82.42
81155;BME280;70631;50.436;7.826;2023-11-21T07:26:36;98858.63;;;9.06;82.41
81155;BME280;70631;50.436;7.826;2023-11-21T07:29:02;98869.13;;;9.08;82.13
81155;BME280;70631;50.436;7.826;2023-11-21T07:31:28;98871.78;;;9.08;82.04
81155;BME280;70631;50.436;7.826;2023-11-21T07:33:54;98876.13;;;9.09;82.18
81155;BME280;70631;50.436;7.826;2023-11-21T07:36:22;98886.50;;;9.12;82.00
81155;BME280;70631;50.436;7.826;2023-11-21T07:38:48;98876.84;;;9.11;82.25
81155;BME280;70631;50.436;7.826;2023-11-21T07:41:14;98888.31;;;9.11;82.13
81155;BME280;70631;50.436;7.826;2023-11-21T07:43:43;98884.66;;;9.12;82.29
81155;BME280;70631;50.436;7.826;2023-11-21T07:46:08;98893.06;;;9.17;82.19
81155;BME280;70631;50.436;7.826;2023-11-21T07:48:34;98884.09;;;9.18;82.19
81155;BME280;70631;50.436;7.826;2023-11-21T07:51:01;98886.59;;;9.20;82.07
81155;BME280;70631;50.436;7.826;2023-11-21T07:53:28;98896.13;;;9.23;82.22
81155;BME280;70631;50.436;7.826;2023-11-21T07:55:59;98898.47;;;9.26;82.08
81155;BME280;70631;50.436;7.826;2023-11-21T07:58:27;98906.16;;;9.29;82.07
81155;BME280;70631;50.436;7.826;2023-11-21T08:00:53;98911.50;;;9.29;82.22
81155;BME280;70631;50.436;7.826;2023-11-21T08:03:18;98913.16;;;9.30;82.09
81155;BME280;70631;50.436;7.826;2023-11-21T08:05:43;98921.56;;;9.35;82.11
81155;BME280;70631;50.436;7.826;2023-11-21T08:08:10;98926.59;;;9.38;81.98
81155;BME280;70631;50.436;7.826;2023-11-21T08:10:35;98924.63;;;9.40;81.95
81155;BME280;70631;50.436;7.826;2023-11-21T08:13:01;98933.31;;;9.42;81.63
81155;BME280;70631;50.436;7.826;2023-11-21T08:15:26;98927.69;;;9.45;81.82
81155;BME280;70631;50.436;7.826;2023-11-21T08:17:52;98925.34;;;9.42;82.04
81155;BME280;70631;50.436;7.826;2023-11-21T08:20:17;98929.97;;;9.40;82.33
81155;BME280;70631;50.436;7.826;2023-11-21T08:22:45;98931.09;;;9.37;82.25
81155;BME280;70631;50.436;7.826;2023-11-21T08:25:12;98936.13;;;9.40;82.08
81155;BME280;70631;50.436;7.826;2023-11-21T08:27:38;98937.78;;;9.41;82.07
81155;BME280;70631;50.436;7.826;2023-11-21T08:30:04;98939.03;;;9.47;82.43
81155;BME280;70631;50.436;7.826;2023-11-21T08:32:30;98941.09;;;9.53;82.11
81155;BME280;70631;50.436;7.826;2023-11-21T08:34:57;98935.78;;;9.53;81.85
81155;BME280;70631;50.436;7.826;2023-11-21T08:37:23;98942.38;;;9.59;81.48
81155;BME280;70631;50.436;7.826;2023-11-21T08:39:49;98949.53;;;9.58;81.71
81155;BME280;70631;50.436;7.826;2023-11-21T08:42:14;98945.59;;;9.62;81.39
81155;BME280;70631;50.436;7.826;2023-11-21T08:44:40;98948.66;;;9.67;81.31
81155;BME280;70631;50.436;7.826;2023-11-21T08:47:06;98945.69;;;9.70;81.49
81155;BME280;70631;50.436;7.826;2023-11-21T08:49:31;98947.81;;;9.76;81.42
81155;BME280;70631;50.436;7.826;2023-11-21T08:51:57;98949.19;;;9.80;80.88
81155;BME280;70631;50.436;7.826;2023-11-21T08:54:25;98949.88;;;9.83;80.99
81155;BME280;70631;50.436;7.826;2023-11-21T08:56:52;98953.38;;;9.83;80.98
81155;BME280;70631;50.436;7.826;2023-11-21T08:59:17;98960.38;;;9.84;80.70
81155;BME280;70631;50.436;7.826;2023-11-21T09:01:42;98951.41;;;9.85;80.69
81155;BME280;70631;50.436;7.826;2023-11-21T09:04:07;98956.59;;;9.87;80.33
81155;BME280;70631;50.436;7.826;2023-11-21T09:06:33;98959.25;;;9.87;80.54
81155;BME280;70631;50.436;7.826;2023-11-21T09:08:58;98957.28;;;9.89;80.63
81155;BME280;70631;50.436;7.826;2023-11-21T09:11:24;98957.97;;;9.91;80.67
81155;BME280;70631;50.436;7.826;2023-11-21T09:13:50;98967.63;;;9.92;80.14
81155;BME280;70631;50.436;7.826;2023-11-21T09:16:16;98971.28;;;9.91;80.68
81155;BME280;70631;50.436;7.826;2023-11-21T09:18:42;98970.81;;;9.95;80.67
81155;BME280;70631;50.436;7.826;2023-11-21T09:21:07;98970.97;;;9.94;80.65
81155;BME280;70631;50.436;7.826;2023-11-21T09:23:33;98972.66;;;9.95;80.57
81155;BME280;70631;50.436;7.826;2023-11-21T09:25:59;98982.75;;;10.01;80.65
81155;BME280;70631;50.436;7.826;2023-11-21T09:28:26;98978.94;;;10.03;80.52
81155;BME280;70631;50.436;7.826;2023-11-21T09:30:52;98981.59;;;10.03;80.20
81155;BME280;70631;50.436;7.826;2023-11-21T09:33:18;98992.50;;;10.10;80.50
81155;BME280;70631;50.436;7.826;2023-11-21T09:35:43;98989.53;;;10.13;80.60
81155;BME280;70631;50.436;7.826;2023-11-21T09:38:09;98998.91;;;10.17;80.39
81155;BME280;70631;50.436;7.826;2023-11-21T09:40:36;99008.56;;;10.18;80.04
81155;BME280;70631;50.436;7.826;2023-11-21T09:43:06;99015.03;;;10.16;79.85
81155;BME280;70631;50.436;7.826;2023-11-21T09:45:35;99016.56;;;10.18;79.93
81155;BME280;70631;50.436;7.826;2023-11-21T09:48:01;99023.72;;;10.18;79.91
81155;BME280;70631;50.436;7.826;2023-11-21T09:50:26;99024.69;;;10.17;79.88
81155;BME280;70631;50.436;7.826;2023-11-21T09:55:44;99033.16;;;10.22;79.56
81155;BME280;70631;50.436;7.826;2023-11-21T09:58:10;99032.00;;;10.24;79.44
81155;BME280;70631;50.436;7.826;2023-11-21T10:00:40;99032.84;;;10.25;79.37
81155;BME280;70631;50.436;7.826;2023-11-21T10:03:05;99037.47;;;10.23;79.64
81155;BME280;70631;50.436;7.826;2023-11-21T10:05:30;99038.03;;;10.26;79.75
81155;BME280;70631;50.436;7.826;2023-11-21T10:07:59;99040.53;;;10.28;79.58
81155;BME280;70631;50.436;7.826;2023-11-21T10:10:25;99043.44;;;10.34;79.61
81155;BME280;70631;50.436;7.826;2023-11-21T10:12:55;99041.19;;;10.39;79.32
81155;BME280;70631;50.436;7.826;2023-11-21T10:15:22;99038.78;;;10.46;79.03
81155;BME280;70631;50.436;7.826;2023-11-21T10:17:52;99033.41;;;10.56;78.94
81155;BME280;70631;50.436;7.826;2023-11-21T10:20:19;99042.38;;;10.64;78.57
81155;BME280;70631;50.436;7.826;2023-11-21T10:22:45;99041.63;;;10.72;78.04
81155;BME280;70631;50.436;7.826;2023-11-21T10:25:11;99041.00;;;10.78;78.46
81155;BME280;70631;50.436;7.826;2023-11-21T10:27:40;99045.72;;;10.94;77.41
81155;BME280;70631;50.436;7.826;2023-11-21T10:30:07;99043.41;;;10.99;77.63
81155;BME280;70631;50.436;7.826;2023-11-21T10:32:40;99048.72;;;11.09;77.54
81155;BME280;70631;50.436;7.826;2023-11-21T10:35:09;99043.97;;;11.20;77.46
81155;BME280;70631;50.436;7.826;2023-11-21T10:37:38;99043.53;;;11.25;76.95
81155;BME280;70631;50.436;7.826;2023-11-21T10:40:06;99046.03;;;11.26;76.81
81155;BME280;70631;50.436;7.826;2023-11-21T10:42:35;99047.44;;;11.30;76.69
81155;BME280;70631;50.436;7.826;2023-11-21T10:45:00;99042.38;;;11.27;76.62
81155;BME280;70631;50.436;7.826;2023-11-21T10:47:27;99059.53;;;11.25;76.53
81155;BME280;70631;50.436;7.826;2023-11-21T10:49:52;99046.34;;;11.23;76.41
81155;BME280;70631;50.436;7.826;2023-11-21T10:52:21;99054.50;;;11.22;76.25
81155;BME280;70631;50.436;7.826;2023-11-21T10:54:46;99047.78;;;11.18;76.58
81155;BME280;70631;50.436;7.826;2023-11-21T10:57:16;99044.34;;;11.25;76.52
81155;BME280;70631;50.436;7.826;2023-11-21T10:59:46;99051.25;;;11.28;76.69
81155;BME280;70631;50.436;7.826;2023-11-21T11:02:24;99051.63;;;11.33;76.36
81155;BME280;70631;50.436;7.826;2023-11-21T11:04:53;99050.09;;;11.48;76.64
81155;BME280;70631;50.436;7.826;2023-11-21T11:07:21;99050.19;;;11.56;76.24
81155;BME280;70631;50.436;7.826;2023-11-21T11:09:49;99053.16;;;11.71;76.10
81155;BME280;70631;50.436;7.826;2023-11-21T11:12:15;99054.59;;;11.83;75.63
81155;BME280;70631;50.436;7.826;2023-11-21T11:14:42;99055.13;;;11.87;75.48
81155;BME280;70631;50.436;7.826;2023-11-21T11:17:10;99056.78;;;11.88;75.27
81155;BME280;70631;50.436;7.826;2023-11-21T11:19:36;99056.97;;;11.86;74.84
81155;BME280;70631;50.436;7.826;2023-11-21T11:32:48;99048.41;;;11.83;74.09
81155;BME280;70631;50.436;7.826;2023-11-21T11:37:49;99048.56;;;11.99;74.02
81155;BME280;70631;50.436;7.826;2023-11-21T11:40:15;99054.94;;;12.06;73.92
81155;BME280;70631;50.436;7.826;2023-11-21T11:42:56;99052.25;;;12.06;74.02
81155;BME280;70631;50.436;7.826;2023-11-21T11:45:22;99058.66;;;12.13;73.12
81155;BME280;70631;50.436;7.826;2023-11-21T11:47:57;99074.31;;;12.08;73.29
81155;BME280;70631;50.436;7.826;2023-11-21T11:50:22;99066.94;;;12.02;72.98
81155;BME280;70631;50.436;7.826;2023-11-21T11:52:49;99072.22;;;11.94;73.69
81155;BME280;70631;50.436;7.826;2023-11-21T11:55:17;99070.00;;;11.89;73.59
81155;BME280;70631;50.436;7.826;2023-11-21T11:57:47;99072.59;;;11.81;73.83
81155;BME280;70631;50.436;7.826;2023-11-21T12:00:14;99065.03;;;11.77;74.13
81155;BME280;70631;50.436;7.826;2023-11-21T12:02:59;99066.28;;;11.82;73.74
81155;BME280;70631;50.436;7.826;2023-11-21T12:05:30;99073.97;;;11.85;73.50
81155;BME280;70631;50.436;7.826;2023-11-21T12:08:00;99071.81;;;11.89;73.50
81155;BME280;70631;50.436;7.826;2023-11-21T12:10:27;99075.81;;;11.85;73.24
81155;BME280;70631;50.436;7.826;2023-11-21T12:12:55;99073.13;;;11.85;73.52
81155;BME280;70631;50.436;7.826;2023-11-21T12:15:21;99072.50;;;11.91;73.13
81155;BME280;70631;50.436;7.826;2023-11-21T12:17:47;99082.91;;;11.94;73.34
81155;BME280;70631;50.436;7.826;2023-11-21T12:20:15;99079.22;;;11.95;72.71
81155;BME280;70631;50.436;7.826;2023-11-21T12:22:54;99081.50;;;11.90;73.15
81155;BME280;70631;50.436;7.826;2023-11-21T12:25:23;99086.09;;;11.80;73.48
81155;BME280;70631;50.436;7.826;2023-11-21T12:27:51;99081.28;;;11.83;72.88
81155;BME280;70631;50.436;7.826;2023-11-21T12:30:18;99086.63;;;11.83;72.33
81155;BME280;70631;50.436;7.826;2023-11-21T12:32:44;99082.44;;;11.81;72.53
81155;BME280;70631;50.436;7.826;2023-11-21T12:35:13;99089.78;;;11.79;73.21
81155;BME280;70631;50.436;7.826;2023-11-21T12:37:39;99090.44;;;11.81;72.83
81155;BME280;70631;50.436;7.826;2023-11-21T12:40:06;99091.44;;;11.80;72.97
81155;BME280;70631;50.436;7.826;2023-11-21T12:42:33;99097.31;;;11.83;72.66
81155;BME280;70631;50.436;7.826;2023-11-21T12:45:34;99102.41;;;11.77;72.85
81155;BME280;70631;50.436;7.826;2023-11-21T12:48:02;99100.81;;;11.84;72.40
81155;BME280;70631;50.436;7.826;2023-11-21T12:50:32;99106.84;;;11.86;72.34
81155;BME280;70631;50.436;7.826;2023-11-21T12:53:01;99109.66;;;11.84;72.68
81155;BME280;70631;50.436;7.826;2023-11-21T12:55:32;99118.66;;;11.83;72.33
81155;BME280;70631;50.436;7.826;2023-11-21T12:58:02;99122.63;;;11.79;72.77
81155;BME280;70631;50.436;7.826;2023-11-21T13:00:38;99115.38;;;11.72;72.79
81155;BME280;70631;50.436;7.826;2023-11-21T13:03:06;99122.53;;;11.71;72.64
81155;BME280;70631;50.436;7.826;2023-11-21T13:05:36;99114.97;;;11.67;72.33
81155;BME280;70631;50.436;7.826;2023-11-21T13:08:06;99114.28;;;11.64;72.90
81155;BME280;70631;50.436;7.826;2023-11-21T13:10:39;99122.75;;;11.60;73.41
81155;BME280;70631;50.436;7.826;2023-11-21T13:13:07;99129.53;;;11.54;73.68
81155;BME280;70631;50.436;7.826;2023-11-21T13:15:47;99123.94;;;11.48;73.89
81155;BME280;70631;50.436;7.826;2023-11-21T13:18:13;99124.50;;;11.51;74.33
81155;BME280;70631;50.436;7.826;2023-11-21T13:20:40;99115.78;;;11.49;74.00